Time;durP1;ratioP1;P1;durP2;ratioP2;P2;SDS_P1;SDS_P2;PMS_P1;PMS_P2;Temp;Humidity;BMP_temperature;BMP_pressure;BME280_temperature;BME280_humidity;BME280_pressure;Samples;Min_cycle;Max_cycle;Signal;HPM_P1;HPM_P2
2024/02/11 00:01:15;;;;;;;3.13;1.98;;;;;;;26.96;31.50;96792.25;7398400;19;20117;-55
2024/02/11 00:03:41;;;;;;;10.70;3.33;;;;;;;25.44;33.42;96793.72;7400740;19;20010;-54
2024/02/11 00:06:11;;;;;;;5.90;1.83;;;;;;;24.64;33.71;96802.44;7399497;19;20033;-55
2024/02/11 00:08:40;;;;;;;10.88;2.58;;;;;;;24.35;34.29;96799.72;7399036;19;20093;-56
2024/02/11 00:11:08;;;;;;;7.10;3.38;;;;;;;24.80;33.71;96798.19;7399704;19;20014;-55
2024/02/11 00:13:36;;;;;;;8.70;1.98;;;;;;;25.56;32.99;96803.47;7397515;19;20014;-54
2024/02/11 00:16:02;;;;;;;2.08;1.70;;;;;;;24.87;34.04;96802.03;7398727;19;20015;-55
2024/02/11 00:18:28;;;;;;;2.38;1.63;;;;;;;24.24;34.30;96800.66;7398612;19;20023;-54
2024/02/11 00:20:55;;;;;;;7.35;2.40;;;;;;;23.95;35.13;96802.19;7399143;19;20045;-54
2024/02/11 00:23:24;;;;;;;9.00;3.30;;;;;;;23.67;35.08;96800.88;7399050;19;20014;-55
2024/02/11 00:25:53;;;;;;;3.22;1.48;;;;;;;24.96;33.92;96803.09;7399126;19;20074;-54
2024/02/11 00:28:23;;;;;;;8.93;2.55;;;;;;;25.34;33.39;96802.53;7398119;19;20018;-55
2024/02/11 00:30:49;;;;;;;4.25;2.42;;;;;;;25.01;33.58;96811.16;7398372;19;20003;-55
2024/02/11 00:33:19;;;;;;;9.02;3.35;;;;;;;24.93;33.44;96807.97;7396447;19;20027;-54
2024/02/11 00:35:47;;;;;;;18.87;2.10;;;;;;;24.85;33.82;96799.09;7398033;19;20019;-55
2024/02/11 00:38:15;;;;;;;5.60;2.15;;;;;;;25.83;33.04;96810.19;7396974;19;20026;-55
2024/02/11 00:40:42;;;;;;;2.30;1.55;;;;;;;26.12;32.33;96804.19;7397805;19;20018;-55
2024/02/11 00:43:08;;;;;;;1.50;1.35;;;;;;;24.37;34.06;96808.34;7397616;19;20086;-55
2024/02/11 00:45:38;;;;;;;9.40;1.90;;;;;;;25.72;32.84;96811.19;7401323;19;20006;-55
2024/02/11 00:48:06;;;;;;;16.75;3.72;;;;;;;24.76;33.42;96820.06;7397635;19;20025;-55
2024/02/11 00:50:33;;;;;;;8.18;2.35;;;;;;;25.29;33.41;96812.34;7397815;19;20015;-55
2024/02/11 00:53:05;;;;;;;9.07;0.98;;;;;;;24.39;33.72;96812.03;7394705;19;20526;-56
2024/02/11 00:55:35;;;;;;;5.22;2.20;;;;;;;24.62;33.58;96810.88;7398555;19;20402;-56
2024/02/11 00:58:05;;;;;;;10.80;2.47;;;;;;;24.80;33.71;96814.53;7397460;19;20553;-54
2024/02/11 01:00:33;;;;;;;15.65;2.47;;;;;;;24.54;33.83;96816.22;7397239;19;20011;-55
2024/02/11 01:02:59;;;;;;;2.88;1.42;;;;;;;24.65;33.90;96820.97;7400529;19;20014;-56
2024/02/11 01:05:25;;;;;;;7.50;2.05;;;;;;;24.44;33.97;96812.94;7398407;19;20014;-55
2024/02/11 01:07:51;;;;;;;4.97;1.85;;;;;;;24.19;34.43;96810.41;7397485;19;20013;-54
2024/02/11 01:10:17;;;;;;;12.05;2.38;;;;;;;23.95;34.82;96805.03;7395742;19;20338;-55
2024/02/11 01:12:45;;;;;;;3.58;1.70;;;;;;;23.52;34.78;96815.81;7394663;19;20027;-54
2024/02/11 01:15:13;;;;;;;11.80;2.55;;;;;;;22.80;35.83;96815.06;7399036;19;20464;-55
2024/02/11 01:17:40;;;;;;;4.75;2.05;;;;;;;21.94;36.88;96817.66;7395649;19;20018;-54
2024/02/11 01:20:13;;;;;;;6.30;1.88;;;;;;;21.43;37.56;96833.22;7395915;19;20011;-55
2024/02/11 01:22:46;;;;;;;5.15;1.35;;;;;;;25.07;33.45;96819.22;7396570;19;20014;-55
2024/02/11 01:25:22;;;;;;;2.50;2.10;;;;;;;24.87;33.33;96819.09;7397725;19;20104;-54
2024/02/11 01:27:49;;;;;;;10.82;2.35;;;;;;;25.40;33.08;96825.56;7396284;19;20015;-55
2024/02/11 01:30:20;;;;;;;2.53;1.13;;;;;;;24.95;33.21;96830.81;7395760;19;20492;-55
2024/02/11 01:32:48;;;;;;;5.47;2.58;;;;;;;25.32;33.51;96827.38;7395673;19;20793;-55
2024/02/11 01:35:14;;;;;;;1.40;0.85;;;;;;;26.01;32.17;96831.56;7396380;19;20458;-55
2024/02/11 01:37:41;;;;;;;6.00;1.88;;;;;;;25.28;32.77;96832.91;7397787;19;20010;-55
2024/02/11 01:40:15;;;;;;;6.32;1.48;;;;;;;26.01;31.84;96825.16;7395388;19;20014;-54
2024/02/11 01:42:44;;;;;;;4.32;1.40;;;;;;;25.76;31.86;96826.34;7396221;19;20023;-54
2024/02/11 01:45:10;;;;;;;7.22;1.30;;;;;;;24.95;33.15;96825.13;7396147;19;20024;-55
2024/02/11 01:47:36;;;;;;;6.30;2.72;;;;;;;24.82;33.01;96828.84;7397174;19;20010;-55
2024/02/11 01:50:15;;;;;;;6.95;2.10;;;;;;;25.23;32.51;96826.31;7397443;19;20014;-55
2024/02/11 01:52:41;;;;;;;0.65;0.65;;;;;;;25.68;32.36;96816.72;7398340;19;20014;-55
2024/02/11 01:55:12;;;;;;;16.73;1.92;;;;;;;25.72;31.94;96822.59;7400517;19;20012;-55
2024/02/11 01:57:41;;;;;;;5.22;2.53;;;;;;;25.56;32.35;96826.28;7397588;19;20036;-54
2024/02/11 02:00:08;;;;;;;4.72;2.15;;;;;;;25.42;32.29;96824.97;7392491;19;20580;-54
2024/02/11 02:02:36;;;;;;;1.80;1.50;;;;;;;25.41;32.48;96824.22;7395143;19;20037;-55
2024/02/11 02:05:02;;;;;;;1.95;1.02;;;;;;;22.51;35.37;96827.78;7390342;19;20027;-54
2024/02/11 02:07:28;;;;;;;3.45;2.08;;;;;;;27.34;30.54;96818.47;7393334;19;20018;-55
2024/02/11 02:09:58;;;;;;;2.90;1.13;;;;;;;24.70;33.26;96834.00;7392068;19;20010;-55
2024/02/11 02:12:24;;;;;;;4.68;1.65;;;;;;;23.18;34.45;96828.31;7391816;19;20565;-55
2024/02/11 02:14:50;;;;;;;2.25;2.03;;;;;;;23.68;34.06;96830.78;7391566;19;20414;-55
2024/02/11 02:17:17;;;;;;;16.30;2.03;;;;;;;26.04;31.74;96829.53;7389894;19;20754;-55
2024/02/11 02:19:43;;;;;;;2.80;1.17;;;;;;;28.00;29.75;96834.94;7390402;19;20032;-54
2024/02/11 02:22:10;;;;;;;3.78;2.00;;;;;;;28.25;29.07;96831.41;7394816;19;20040;-55
2024/02/11 02:24:36;;;;;;;5.85;2.15;;;;;;;24.82;32.20;96838.13;7394016;19;20011;-55
2024/02/11 02:27:05;;;;;;;2.53;1.10;;;;;;;22.57;35.03;96847.94;7394261;19;20014;-55
2024/02/11 02:29:31;;;;;;;3.35;2.45;;;;;;;22.60;34.54;96857.34;7394175;19;20462;-55
2024/02/11 02:31:58;;;;;;;2.67;1.85;;;;;;;22.34;35.06;96851.00;7394848;19;20007;-54
2024/02/11 02:34:24;;;;;;;12.73;2.92;;;;;;;22.36;35.20;96851.09;7393062;19;20019;-54
2024/02/11 02:36:50;;;;;;;2.10;1.55;;;;;;;20.94;36.53;96863.66;7394068;19;20433;-54
2024/02/11 02:39:16;;;;;;;1.75;1.35;;;;;;;22.95;34.76;96862.66;7398100;19;20019;-54
2024/02/11 02:41:43;;;;;;;6.72;1.90;;;;;;;23.71;33.38;96849.41;7394680;19;20014;-55
2024/02/11 02:44:09;;;;;;;18.92;1.55;;;;;;;22.01;35.00;96856.31;7393866;19;20011;-55
2024/02/11 02:46:35;;;;;;;4.43;1.42;;;;;;;22.82;34.33;96854.91;7398523;19;20037;-54
2024/02/11 02:49:01;;;;;;;4.53;1.08;;;;;;;25.19;32.12;96857.47;7397989;19;20011;-55
2024/02/11 02:51:27;;;;;;;6.15;1.65;;;;;;;23.98;33.09;96859.88;7392909;19;20011;-54
2024/02/11 02:53:53;;;;;;;3.15;1.33;;;;;;;22.55;34.63;96861.28;7391720;19;20038;-54
2024/02/11 02:56:19;;;;;;;10.90;4.03;;;;;;;22.21;35.23;96856.66;7393983;19;20514;-55
2024/02/11 02:58:45;;;;;;;1.17;1.08;;;;;;;23.29;33.65;96850.91;7395756;19;20014;-54
2024/02/11 03:01:20;;;;;;;6.10;1.02;;;;;;;22.85;34.60;96860.03;7392246;19;20350;-55
2024/02/11 03:03:47;;;;;;;2.90;2.35;;;;;;;23.91;33.47;96850.34;7393293;19;20537;-54
2024/02/11 03:06:14;;;;;;;3.83;1.10;;;;;;;23.72;33.81;96856.56;7393398;19;20018;-55
2024/02/11 03:08:41;;;;;;;10.40;1.73;;;;;;;22.10;35.54;96863.13;7395799;19;20013;-55
2024/02/11 03:11:07;;;;;;;4.25;1.80;;;;;;;21.56;35.76;96869.34;7392933;19;20007;-54
2024/02/11 03:13:33;;;;;;;2.10;1.77;;;;;;;21.82;35.67;96870.81;7392195;19;20037;-54
2024/02/11 03:15:59;;;;;;;6.70;2.10;;;;;;;22.53;34.93;96867.59;7395583;19;20070;-54
2024/02/11 03:18:25;;;;;;;1.08;0.63;;;;;;;21.53;35.92;96871.34;7393323;19;19999;-54
2024/02/11 03:20:51;;;;;;;5.35;1.27;;;;;;;23.24;34.46;96871.22;7392660;19;20014;-54
2024/02/11 03:23:17;;;;;;;9.02;1.58;;;;;;;23.17;34.52;96872.28;7393489;19;20082;-54
2024/02/11 03:25:43;;;;;;;3.05;1.50;;;;;;;23.52;34.03;96871.91;7392857;19;20014;-55
2024/02/11 03:28:11;;;;;;;7.07;1.15;;;;;;;24.59;33.28;96874.78;7393253;19;20033;-54
2024/02/11 03:30:37;;;;;;;1.02;1.02;;;;;;;25.00;32.94;96872.34;7391074;19;21014;-54
2024/02/11 03:33:03;;;;;;;4.88;1.88;;;;;;;25.22;32.72;96864.00;7392171;19;20031;-54
2024/02/11 03:35:29;;;;;;;7.43;1.13;;;;;;;25.89;31.98;96870.31;7393183;19;20018;-56
2024/02/11 03:37:56;;;;;;;4.85;1.95;;;;;;;25.40;32.34;96862.63;7392407;19;20015;-54
2024/02/11 03:40:23;;;;;;;1.35;1.08;;;;;;;25.47;32.33;96877.88;7395843;19;20010;-54
2024/02/11 03:42:50;;;;;;;5.97;2.13;;;;;;;25.84;32.28;96874.38;7391368;19;20022;-54
2024/02/11 03:45:18;;;;;;;5.72;1.15;;;;;;;25.66;31.76;96870.81;7394686;19;20018;-54
2024/02/11 03:47:47;;;;;;;7.22;2.03;;;;;;;21.57;36.34;96882.88;7392476;19;20040;-54
2024/02/11 03:50:14;;;;;;;5.55;2.85;;;;;;;21.83;36.44;96883.63;7394444;19;20021;-55
2024/02/11 03:52:40;;;;;;;12.13;2.13;;;;;;;22.99;35.18;96877.06;7391184;19;20033;-54
2024/02/11 03:55:08;;;;;;;3.17;1.48;;;;;;;23.83;34.21;96872.72;7392073;19;20018;-54
2024/02/11 03:57:34;;;;;;;5.63;1.15;;;;;;;23.68;34.03;96881.94;7392469;19;20470;-54
2024/02/11 04:00:09;;;;;;;7.75;1.88;;;;;;;24.68;33.68;96882.31;7392089;19;20033;-54
2024/02/11 04:02:36;;;;;;;5.88;2.05;;;;;;;23.51;34.23;96882.53;7395473;19;20465;-54
2024/02/11 04:05:04;;;;;;;2.03;0.95;;;;;;;24.30;33.46;96883.44;7392077;19;20011;-54
2024/02/11 04:07:31;;;;;;;2.75;0.95;;;;;;;25.41;32.26;96878.34;7391287;19;20013;-54
2024/02/11 04:10:09;;;;;;;4.30;1.73;;;;;;;25.04;32.30;96894.53;7390572;19;20028;-55
2024/02/11 04:12:35;;;;;;;7.57;2.40;;;;;;;25.40;32.14;96899.66;7399248;19;20034;-54
2024/02/11 04:15:02;;;;;;;5.57;1.63;;;;;;;24.43;32.93;96891.16;7400100;19;20023;-55
2024/02/11 04:17:28;;;;;;;6.80;1.92;;;;;;;25.03;32.46;96893.84;7398886;19;20011;-54
2024/02/11 04:19:54;;;;;;;5.75;1.45;;;;;;;25.06;32.35;96895.38;7398644;19;20014;-54
2024/02/11 04:22:22;;;;;;;9.85;1.88;;;;;;;24.59;32.63;96897.53;7400877;19;20033;-54
2024/02/11 04:24:49;;;;;;;2.03;1.17;;;;;;;24.80;32.22;96897.09;7399557;19;20408;-54
2024/02/11 04:27:16;;;;;;;5.97;1.48;;;;;;;22.89;34.67;96907.78;7396441;19;20048;-54
2024/02/11 04:29:44;;;;;;;2.20;0.93;;;;;;;23.35;34.11;96902.34;7398363;19;20021;-54
2024/02/11 04:32:11;;;;;;;3.47;1.52;;;;;;;23.79;34.05;96900.94;7398554;19;20010;-54
2024/02/11 04:34:43;;;;;;;5.25;1.80;;;;;;;23.93;33.70;96898.75;7396004;19;20011;-54
2024/02/11 04:37:12;;;;;;;1.58;1.15;;;;;;;24.36;33.35;96909.31;7398323;19;20014;-54
2024/02/11 04:39:38;;;;;;;1.23;1.13;;;;;;;23.53;34.60;96916.72;7397788;19;20021;-55
2024/02/11 04:42:05;;;;;;;1.50;1.00;;;;;;;24.70;32.83;96917.28;7398168;19;20021;-54
2024/02/11 04:44:31;;;;;;;4.22;2.58;;;;;;;25.80;32.52;96916.97;7401012;19;20018;-53
2024/02/11 04:47:00;;;;;;;4.25;2.20;;;;;;;24.80;33.48;96917.00;7399768;19;21075;-54
2024/02/11 04:49:29;;;;;;;1.15;1.15;;;;;;;24.87;33.13;96918.75;7396769;19;20026;-54
2024/02/11 04:51:55;;;;;;;2.28;1.65;;;;;;;24.93;33.26;96921.16;7397562;19;20554;-54
2024/02/11 04:54:21;;;;;;;3.50;1.60;;;;;;;25.28;32.97;96929.78;7398084;19;20016;-55
2024/02/11 04:56:47;;;;;;;2.75;0.57;;;;;;;25.10;33.03;96926.88;7396834;19;20010;-54
2024/02/11 04:59:15;;;;;;;6.88;2.58;;;;;;;24.91;33.23;96924.63;7396167;19;20070;-54
2024/02/11 05:01:44;;;;;;;13.38;1.25;;;;;;;24.92;33.08;96923.25;7397097;19;20011;-54
2024/02/11 05:04:10;;;;;;;2.88;0.50;;;;;;;25.35;32.70;96929.38;7398087;19;20007;-54
2024/02/11 05:06:38;;;;;;;4.10;1.17;;;;;;;23.29;34.78;96935.38;7397088;19;20356;-55
2024/02/11 05:09:04;;;;;;;1.40;0.95;;;;;;;23.89;33.98;96927.00;7397165;19;20454;-54
2024/02/11 05:11:30;;;;;;;2.50;1.38;;;;;;;23.37;34.50;96924.44;7397019;19;20007;-55
2024/02/11 05:13:58;;;;;;;3.60;1.73;;;;;;;23.54;34.44;96920.31;7397206;19;20014;-55
2024/02/11 05:16:27;;;;;;;4.90;1.35;;;;;;;25.78;31.79;96928.31;7399660;19;20063;-55
2024/02/11 05:18:54;;;;;;;1.15;1.08;;;;;;;25.75;31.74;96929.63;7396906;19;20062;-55
2024/02/11 05:21:21;;;;;;;3.42;1.35;;;;;;;25.69;31.66;96923.66;7396236;19;20011;-54
2024/02/11 05:23:48;;;;;;;2.58;1.15;;;;;;;25.55;31.31;96927.41;7394758;19;20022;-54
2024/02/11 05:26:17;;;;;;;2.05;1.45;;;;;;;25.55;31.19;96932.38;7396720;19;20007;-54
2024/02/11 05:28:43;;;;;;;1.48;0.82;;;;;;;25.27;31.09;96934.75;7395763;19;20420;-54
2024/02/11 05:31:18;;;;;;;0.50;0.50;;;;;;;25.29;31.03;96937.69;7396138;19;20737;-53
2024/02/11 05:33:44;;;;;;;1.23;0.60;;;;;;;25.25;31.20;96939.63;7394303;19;20019;-53
2024/02/11 05:36:13;;;;;;;0.82;0.82;;;;;;;24.15;31.78;96941.03;7395280;19;20705;-53
2024/02/11 05:38:39;;;;;;;1.45;0.47;;;;;;;24.02;31.78;96940.41;7395561;19;20015;-53
2024/02/11 05:41:07;;;;;;;2.55;0.50;;;;;;;24.08;31.81;96943.56;7395406;19;20098;-52
2024/02/11 05:43:35;;;;;;;10.43;2.28;;;;;;;25.45;30.74;96952.63;7394110;19;20392;-53
2024/02/11 05:46:02;;;;;;;4.78;1.63;;;;;;;25.99;29.77;96947.72;7398246;19;20006;-53
2024/02/11 05:48:28;;;;;;;0.98;0.77;;;;;;;26.19;29.93;96948.53;7396422;19;20019;-53
2024/02/11 05:50:54;;;;;;;10.63;1.90;;;;;;;26.43;29.71;96940.16;7395480;19;20466;-53
2024/02/11 05:53:21;;;;;;;7.15;2.08;;;;;;;26.91;29.22;96945.59;7394198;19;20069;-53
2024/02/11 05:55:49;;;;;;;2.58;1.08;;;;;;;26.52;28.96;96945.53;7398076;19;20022;-53
2024/02/11 05:58:15;;;;;;;5.18;1.30;;;;;;;26.56;29.09;96945.69;7395068;19;20018;-53
2024/02/11 06:00:43;;;;;;;4.97;1.27;;;;;;;26.82;28.89;96943.84;7393804;19;20014;-53
2024/02/11 06:03:09;;;;;;;15.48;1.70;;;;;;;26.75;28.98;96955.69;7398836;19;20040;-53
2024/02/11 06:05:35;;;;;;;7.32;1.25;;;;;;;26.59;29.37;96961.53;7396553;19;20019;-54
2024/02/11 06:08:02;;;;;;;6.43;1.75;;;;;;;26.63;29.27;96963.78;7394876;19;20019;-54
2024/02/11 06:10:33;;;;;;;2.85;0.98;;;;;;;26.73;29.36;96964.91;7394279;19;20062;-54
2024/02/11 06:13:01;;;;;;;8.45;1.27;;;;;;;26.80;29.08;96969.47;7393882;19;20021;-54
2024/02/11 06:15:29;;;;;;;3.45;1.42;;;;;;;26.31;29.31;96971.84;7393860;19;20018;-54
2024/02/11 06:17:58;;;;;;;1.30;1.17;;;;;;;25.85;29.56;96967.09;7399473;19;20032;-54
2024/02/11 06:20:24;;;;;;;0.35;0.30;;;;;;;26.57;29.38;96972.88;7393884;19;20010;-55
2024/02/11 06:22:52;;;;;;;3.25;0.82;;;;;;;25.96;29.44;96971.84;7393851;19;20019;-54
2024/02/11 06:25:22;;;;;;;2.05;1.27;;;;;;;25.79;30.11;96978.25;7394382;19;20010;-54
2024/02/11 06:27:49;;;;;;;0.70;0.70;;;;;;;23.99;31.44;96980.78;7397344;19;20014;-54
2024/02/11 06:30:17;;;;;;;0.75;0.75;;;;;;;25.19;30.24;96985.66;7394243;19;20255;-54
2024/02/11 06:32:45;;;;;;;3.22;2.67;;;;;;;25.43;30.39;96983.91;7393668;19;20020;-54
2024/02/11 06:35:13;;;;;;;2.08;1.27;;;;;;;26.42;29.40;96987.97;7391541;19;20021;-54
2024/02/11 06:37:41;;;;;;;1.77;1.52;;;;;;;26.41;29.48;96988.63;7397542;19;20022;-54
2024/02/11 06:40:19;;;;;;;0.35;0.32;;;;;;;26.19;29.02;96994.91;7394670;19;20352;-54
2024/02/11 06:42:50;;;;;;;9.32;1.45;;;;;;;25.46;29.64;96998.97;7393691;19;20010;-54
2024/02/11 06:45:17;;;;;;;1.75;1.52;;;;;;;24.78;30.77;97005.16;7394870;19;20011;-54
2024/02/11 06:47:45;;;;;;;27.85;2.38;;;;;;;24.54;30.57;97010.44;7397926;19;20032;-54
2024/02/11 06:50:15;;;;;;;4.88;0.93;;;;;;;24.22;31.25;97014.63;7393514;19;20016;-54
2024/02/11 06:52:42;;;;;;;1.20;1.13;;;;;;;23.95;30.95;97006.16;7393683;19;20417;-54
2024/02/11 06:55:10;;;;;;;3.88;1.70;;;;;;;24.04;31.04;97016.53;7392552;19;20070;-54
2024/02/11 06:57:40;;;;;;;1.08;0.77;;;;;;;24.01;31.02;97020.69;7397165;19;20014;-53
2024/02/11 07:00:10;;;;;;;4.63;2.08;;;;;;;24.21;31.29;97018.09;7392620;19;20451;-53
2024/02/11 07:02:37;;;;;;;1.53;1.17;;;;;;;24.72;30.75;97025.53;7396414;19;20011;-53
2024/02/11 07:05:05;;;;;;;0.52;0.13;;;;;;;22.02;33.27;97030.66;7392965;19;20244;-53
2024/02/11 07:07:35;;;;;;;0.68;0.65;;;;;;;20.65;35.17;97047.16;7393657;19;20029;-53
2024/02/11 07:10:01;;;;;;;1.10;0.55;;;;;;;26.49;29.33;97040.31;7391672;19;20019;-53
2024/02/11 07:12:27;;;;;;;3.83;1.40;;;;;;;27.30;28.59;97035.56;7390769;19;20011;-53
2024/02/11 07:14:53;;;;;;;5.32;1.48;;;;;;;27.55;28.38;97035.06;7390929;19;20460;-54
2024/02/11 07:17:20;;;;;;;2.17;1.20;;;;;;;26.78;29.09;97032.22;7395770;19;20487;-54
2024/02/11 07:19:48;;;;;;;2.95;1.23;;;;;;;25.47;30.14;97038.22;7391736;19;20027;-55
2024/02/11 07:22:14;;;;;;;6.32;1.67;;;;;;;24.95;30.07;97050.09;7392725;19;20011;-54
2024/02/11 07:24:43;;;;;;;1.77;0.68;;;;;;;24.48;30.96;97035.78;7392166;19;20007;-54
2024/02/11 07:27:14;;;;;;;0.95;0.93;;;;;;;25.65;29.85;97049.66;7395098;19;20365;-54
2024/02/11 07:29:43;;;;;;;1.90;1.48;;;;;;;25.25;30.69;97045.75;7391076;19;20014;-54
2024/02/11 07:32:10;;;;;;;4.03;1.42;;;;;;;25.99;30.03;97056.81;7390921;19;20011;-53
2024/02/11 07:34:39;;;;;;;10.05;1.52;;;;;;;25.30;30.54;97070.19;7390676;19;20010;-53
2024/02/11 07:37:06;;;;;;;5.35;1.23;;;;;;;24.80;30.88;97070.75;7393903;19;20003;-53
2024/02/11 07:39:32;;;;;;;1.20;0.30;;;;;;;25.97;30.08;97070.25;7392351;19;20022;-53
2024/02/11 07:42:00;;;;;;;3.88;0.70;;;;;;;25.63;30.33;97077.34;7392075;19;20209;-53
2024/02/11 07:44:26;;;;;;;1.33;0.88;;;;;;;25.27;30.60;97071.50;7391822;19;20074;-53
2024/02/11 07:46:53;;;;;;;5.25;1.50;;;;;;;24.55;31.39;97085.19;7400548;19;20466;-53
2024/02/11 07:49:23;;;;;;;8.95;2.42;;;;;;;24.60;31.29;97086.84;7398391;19;20350;-53
2024/02/11 07:51:49;;;;;;;12.00;2.17;;;;;;;24.67;31.35;97091.44;7398379;19;20023;-54
2024/02/11 07:54:17;;;;;;;31.17;3.25;;;;;;;24.67;31.34;97097.13;7397068;19;20454;-55
2024/02/11 07:56:43;;;;;;;4.18;1.20;;;;;;;23.37;32.69;97108.34;7400383;19;20048;-55
2024/02/11 07:59:12;;;;;;;3.78;1.67;;;;;;;21.43;35.28;97117.13;7400272;19;20470;-54
2024/02/11 08:01:38;;;;;;;6.85;1.63;;;;;;;27.57;29.07;97104.50;7400397;19;20018;-54
2024/02/11 08:04:05;;;;;;;2.45;1.25;;;;;;;27.86;28.91;97109.09;7397871;19;20019;-54
2024/02/11 08:06:32;;;;;;;1.15;1.00;;;;;;;25.22;31.32;97111.84;7399839;19;20023;-54
2024/02/11 08:08:58;;;;;;;5.82;2.60;;;;;;;23.70;32.69;97125.69;7399131;19;20037;-53
2024/02/11 08:11:24;;;;;;;6.60;1.83;;;;;;;22.81;33.50;97131.53;7397683;19;20368;-53
2024/02/11 08:13:54;;;;;;;2.80;2.08;;;;;;;27.96;29.36;97120.88;7396459;19;20412;-54
2024/02/11 08:16:22;;;;;;;8.05;3.05;;;;;;;29.13;27.92;97116.91;7399993;19;20463;-54
2024/02/11 08:18:49;;;;;;;4.40;2.35;;;;;;;29.66;27.87;97116.34;7399198;19;20017;-55
2024/02/11 08:21:15;;;;;;;1.85;1.38;;;;;;;26.13;30.56;97130.88;7398031;19;20041;-55
2024/02/11 08:23:41;;;;;;;1.80;1.65;;;;;;;25.97;30.64;97127.31;7399617;19;20011;-54
2024/02/11 08:26:07;;;;;;;1.75;1.40;;;;;;;24.71;31.98;97128.66;7396837;19;20018;-54
2024/02/11 08:28:33;;;;;;;7.15;1.80;;;;;;;23.81;33.04;97147.59;7402172;19;20022;-54
2024/02/11 08:30:59;;;;;;;5.75;2.85;;;;;;;23.37;33.69;97148.81;7397270;19;20018;-55
2024/02/11 08:33:25;;;;;;;10.75;2.75;;;;;;;23.48;33.88;97139.47;7396884;19;20010;-54
2024/02/11 08:35:52;;;;;;;5.40;2.55;;;;;;;26.33;30.96;97137.44;7397839;19;20017;-55
2024/02/11 08:38:18;;;;;;;3.90;1.50;;;;;;;27.28;29.97;97144.09;7399537;19;20014;-55
2024/02/11 08:40:44;;;;;;;9.15;4.88;;;;;;;27.85;29.67;97144.09;7398184;19;20018;-55
2024/02/11 08:43:10;;;;;;;1.40;1.30;;;;;;;27.41;30.31;97143.19;7398068;19;20014;-55
2024/02/11 08:45:36;;;;;;;1.40;1.17;;;;;;;27.85;29.82;97149.81;7397936;19;20478;-53
2024/02/11 08:48:03;;;;;;;15.20;3.22;;;;;;;26.68;30.67;97146.00;7398423;19;20014;-53
2024/02/11 08:50:29;;;;;;;17.98;3.47;;;;;;;27.12;30.59;97152.03;7398193;19;20010;-53
2024/02/11 08:52:55;;;;;;;2.83;2.20;;;;;;;27.36;30.49;97153.00;7396391;19;20019;-53
2024/02/11 08:55:21;;;;;;;5.88;1.90;;;;;;;26.99;30.73;97157.28;7397222;19;20010;-54
2024/02/11 08:57:48;;;;;;;3.20;1.80;;;;;;;29.00;29.01;97163.09;7397388;19;20090;-54
2024/02/11 09:00:18;;;;;;;1.05;1.05;;;;;;;28.98;29.23;97148.66;7396748;19;20040;-55
2024/02/11 09:02:46;;;;;;;16.67;3.42;;;;;;;29.02;28.91;97155.25;7399287;19;20025;-54
2024/02/11 09:05:12;;;;;;;4.50;2.33;;;;;;;27.50;30.30;97159.28;7395296;19;20120;-55
2024/02/11 09:07:38;;;;;;;10.13;2.35;;;;;;;27.27;30.71;97160.50;7398578;19;20466;-55
2024/02/11 09:10:05;;;;;;;6.22;2.45;;;;;;;28.03;30.02;97159.06;7397252;19;20017;-54
2024/02/11 09:12:32;;;;;;;5.93;2.53;;;;;;;27.80;30.35;97160.38;7396688;19;20358;-53
2024/02/11 09:14:58;;;;;;;7.15;2.42;;;;;;;27.38;30.86;97167.38;7394294;19;20031;-53
2024/02/11 09:17:30;;;;;;;3.17;1.65;;;;;;;28.28;30.14;97156.41;7396967;19;20035;-53
2024/02/11 09:19:57;;;;;;;11.05;1.65;;;;;;;27.66;30.75;97163.44;7395397;19;20010;-53
2024/02/11 09:22:24;;;;;;;5.20;3.10;;;;;;;25.34;32.77;97163.66;7394794;19;20473;-54
2024/02/11 09:24:51;;;;;;;18.50;3.80;;;;;;;24.30;34.09;97173.59;7395732;19;20621;-53
2024/02/11 09:27:17;;;;;;;5.53;3.97;;;;;;;24.89;33.69;97169.41;7394572;19;20049;-53
2024/02/11 09:29:45;;;;;;;17.27;4.22;;;;;;;25.09;33.34;97176.06;7400544;19;20477;-53
2024/02/11 09:32:12;;;;;;;16.73;4.03;;;;;;;25.44;33.07;97164.91;7394865;19;20011;-53
2024/02/11 09:34:40;;;;;;;10.50;2.25;;;;;;;26.62;32.32;97177.19;7393029;19;20015;-53
2024/02/11 09:37:07;;;;;;;22.63;4.18;;;;;;;26.81;32.19;97175.84;7394384;19;20418;-53
2024/02/11 09:39:33;;;;;;;32.83;7.40;;;;;;;26.20;32.65;97181.13;7397473;19;20073;-53
2024/02/11 09:41:59;;;;;;;31.10;8.68;;;;;;;26.21;32.79;97179.72;7393364;19;20034;-53
2024/02/11 09:44:28;;;;;;;38.80;6.35;;;;;;;26.33;32.85;97185.97;7393499;19;20029;-53
2024/02/11 09:46:56;;;;;;;15.07;4.35;;;;;;;27.25;32.24;97194.00;7398816;19;20332;-53
2024/02/11 09:49:25;;;;;;;19.02;3.85;;;;;;;27.44;32.13;97191.22;7398089;19;20729;-53
2024/02/11 09:51:55;;;;;;;8.93;2.90;;;;;;;26.83;32.65;97185.19;7394973;19;20014;-53
2024/02/11 09:54:25;;;;;;;4.85;3.42;;;;;;;26.81;32.74;97193.69;7393792;19;20018;-53
2024/02/11 09:56:51;;;;;;;8.95;3.67;;;;;;;27.26;32.58;97190.50;7394648;19;20074;-53
2024/02/11 09:59:17;;;;;;;6.55;2.60;;;;;;;28.35;30.87;97201.00;7396205;19;20433;-53
2024/02/11 10:01:44;;;;;;;10.50;4.43;;;;;;;29.07;30.79;97202.72;7394547;19;20021;-53
2024/02/11 10:04:15;;;;;;;26.80;3.92;;;;;;;29.12;30.53;97206.44;7394366;19;20003;-53
2024/02/11 10:06:42;;;;;;;8.13;1.67;;;;;;;29.79;30.10;97215.75;7393984;19;20021;-53
2024/02/11 10:09:12;;;;;;;2.55;2.33;;;;;;;29.70;29.85;97213.28;7394356;19;20626;-53
2024/02/11 10:11:39;;;;;;;5.88;1.95;;;;;;;29.91;29.53;97218.97;7394682;19;20462;-53
2024/02/11 10:14:13;;;;;;;5.38;3.05;;;;;;;29.74;29.51;97219.91;7393199;19;20042;-53
2024/02/11 10:16:40;;;;;;;15.38;3.20;;;;;;;29.53;29.92;97223.53;7397914;19;20014;-53
2024/02/11 10:19:07;;;;;;;6.30;3.10;;;;;;;30.77;28.88;97222.75;7395839;19;20018;-53
2024/02/11 10:21:34;;;;;;;10.05;3.08;;;;;;;30.14;29.01;97233.94;7393239;19;20018;-53
2024/02/11 10:24:00;;;;;;;11.88;2.90;;;;;;;29.92;29.51;97239.78;7393972;19;20479;-53
2024/02/11 10:26:28;;;;;;;10.98;3.35;;;;;;;30.27;29.42;97232.88;7393644;19;20014;-53
2024/02/11 10:28:54;;;;;;;3.35;1.55;;;;;;;30.87;28.75;97240.28;7395133;19;20342;-53
2024/02/11 10:31:22;;;;;;;6.55;2.22;;;;;;;31.02;28.55;97238.50;7393787;19;20033;-53
2024/02/11 10:33:48;;;;;;;2.45;2.22;;;;;;;31.36;28.54;97237.16;7392830;19;20014;-55
2024/02/11 10:36:15;;;;;;;20.90;5.97;;;;;;;31.39;28.44;97243.72;7394048;19;20002;-55
2024/02/11 10:38:41;;;;;;;14.85;4.68;;;;;;;31.61;27.97;97244.25;7393458;19;20017;-55
2024/02/11 10:41:07;;;;;;;20.25;4.93;;;;;;;31.74;28.08;97256.75;7393166;19;20439;-55
2024/02/11 10:43:34;;;;;;;16.67;3.50;;;;;;;32.00;27.88;97248.72;7393419;19;20037;-55
2024/02/11 10:46:03;;;;;;;14.80;3.58;;;;;;;33.04;27.28;97255.06;7396490;19;20006;-55
2024/02/11 10:48:29;;;;;;;13.82;3.97;;;;;;;33.66;26.90;97258.94;7393301;19;20024;-54
2024/02/11 10:51:14;;;;;;;20.52;3.53;;;;;;;34.07;26.60;97261.00;7392828;19;20015;-55
2024/02/11 10:53:45;;;;;;;18.13;6.57;;;;;;;33.56;26.24;97256.66;7391953;19;20014;-55
2024/02/11 10:56:14;;;;;;;6.53;3.05;;;;;;;33.64;26.67;97261.81;7390839;19;20014;-56
2024/02/11 10:58:46;;;;;;;5.53;2.90;;;;;;;33.94;26.07;97270.91;7394025;19;20006;-56
2024/02/11 11:01:18;;;;;;;17.55;5.15;;;;;;;34.02;25.87;97276.84;7392368;19;20361;-55
2024/02/11 11:03:46;;;;;;;20.25;4.57;;;;;;;33.70;26.41;97270.56;7393162;19;20042;-55
2024/02/11 11:06:14;;;;;;;13.45;3.70;;;;;;;34.22;25.81;97277.06;7392971;19;20488;-55
2024/02/11 11:08:42;;;;;;;12.43;3.53;;;;;;;34.39;25.61;97265.72;7393785;19;20014;-55
2024/02/11 11:11:08;;;;;;;14.93;2.88;;;;;;;35.26;24.92;97270.97;7392570;19;20011;-54
2024/02/11 11:13:35;;;;;;;16.48;5.25;;;;;;;35.54;24.53;97276.31;7391181;19;20017;-55
2024/02/11 11:16:04;;;;;;;11.98;4.30;;;;;;;35.05;25.17;97278.03;7393041;19;20463;-55
2024/02/11 11:18:35;;;;;;;26.25;3.40;;;;;;;35.11;25.03;97278.06;7393317;19;20354;-53
2024/02/11 11:21:04;;;;;;;19.95;3.25;;;;;;;35.29;24.85;97280.41;7399360;19;20023;-53
2024/02/11 11:23:30;;;;;;;12.05;3.00;;;;;;;36.02;24.77;97284.59;7399955;19;20466;-53
2024/02/11 11:25:56;;;;;;;15.55;5.32;;;;;;;36.28;24.45;97278.91;7400554;19;20384;-53
2024/02/11 11:28:30;;;;;;;18.92;4.57;;;;;;;35.69;24.69;97287.25;7399116;19;20014;-53
2024/02/11 11:30:57;;;;;;;5.32;3.97;;;;;;;36.00;24.59;97285.28;7399036;19;20088;-53
2024/02/11 11:33:27;;;;;;;8.60;3.60;;;;;;;35.95;24.78;97288.88;7394403;19;20018;-53